sensor_id;sensor_type;location;lat;lon;timestamp;temperature;humidity
47350;DHT22;33088;51.982;5.872;2022-07-22T00:00:54;16.30;99.90
47350;DHT22;33088;51.982;5.872;2022-07-22T00:03:20;16.20;99.90
47350;DHT22;33088;51.982;5.872;2022-07-22T00:05:46;16.30;99.90
47350;DHT22;33088;51.982;5.872;2022-07-22T00:08:11;16.30;99.90
47350;DHT22;33088;51.982;5.872;2022-07-22T00:10:37;16.30;99.90
47350;DHT22;33088;51.982;5.872;2022-07-22T00:13:03;16.40;99.90
47350;DHT22;33088;51.982;5.872;2022-07-22T00:15:29;16.30;99.90
47350;DHT22;33088;51.982;5.872;2022-07-22T00:17:55;16.30;99.90
47350;DHT22;33088;51.982;5.872;2022-07-22T00:20:20;16.30;99.90
47350;DHT22;33088;51.982;5.872;2022-07-22T00:22:46;16.30;99.90
47350;DHT22;33088;51.982;5.872;2022-07-22T00:25:12;16.30;99.90
47350;DHT22;33088;51.982;5.872;2022-07-22T00:27:38;16.30;99.90
47350;DHT22;33088;51.982;5.872;2022-07-22T00:30:05;16.30;99.90
47350;DHT22;33088;51.982;5.872;2022-07-22T00:32:31;16.30;99.90
47350;DHT22;33088;51.982;5.872;2022-07-22T00:34:56;16.30;99.90
47350;DHT22;33088;51.982;5.872;2022-07-22T00:37:22;16.30;99.90
47350;DHT22;33088;51.982;5.872;2022-07-22T00:39:48;16.20;99.90
47350;DHT22;33088;51.982;5.872;2022-07-22T00:42:14;16.20;99.90
47350;DHT22;33088;51.982;5.872;2022-07-22T00:44:40;16.30;99.90
47350;DHT22;33088;51.982;5.872;2022-07-22T00:47:06;16.30;99.90
47350;DHT22;33088;51.982;5.872;2022-07-22T00:49:32;16.30;99.90
47350;DHT22;33088;51.982;5.872;2022-07-22T00:51:58;16.30;99.90
47350;DHT22;33088;51.982;5.872;2022-07-22T00:54:24;16.20;99.90
47350;DHT22;33088;51.982;5.872;2022-07-22T00:56:50;16.20;99.90
47350;DHT22;33088;51.982;5.872;2022-07-22T00:59:16;16.10;99.90
47350;DHT22;33088;51.982;5.872;2022-07-22T01:01:42;16.20;99.90
47350;DHT22;33088;51.982;5.872;2022-07-22T01:04:08;16.20;99.90
47350;DHT22;33088;51.982;5.872;2022-07-22T01:06:34;16.20;99.90
47350;DHT22;33088;51.982;5.872;2022-07-22T01:09:00;16.20;99.90
47350;DHT22;33088;51.982;5.872;2022-07-22T01:11:26;16.20;99.90
47350;DHT22;33088;51.982;5.872;2022-07-22T01:13:54;16.20;99.90
47350;DHT22;33088;51.982;5.872;2022-07-22T01:16:21;16.10;99.90
47350;DHT22;33088;51.982;5.872;2022-07-22T01:18:47;16.20;99.90
47350;DHT22;33088;51.982;5.872;2022-07-22T01:21:14;16.20;99.90
47350;DHT22;33088;51.982;5.872;2022-07-22T01:23:41;16.20;99.90
47350;DHT22;33088;51.982;5.872;2022-07-22T01:26:07;16.10;99.90
47350;DHT22;33088;51.982;5.872;2022-07-22T01:28:34;16.10;99.90
47350;DHT22;33088;51.982;5.872;2022-07-22T01:31:00;16.20;99.90
47350;DHT22;33088;51.982;5.872;2022-07-22T01:33:26;16.00;99.90
47350;DHT22;33088;51.982;5.872;2022-07-22T01:35:52;16.10;99.90
47350;DHT22;33088;51.982;5.872;2022-07-22T01:38:19;16.00;99.90
47350;DHT22;33088;51.982;5.872;2022-07-22T01:40:45;16.10;99.90
47350;DHT22;33088;51.982;5.872;2022-07-22T01:43:13;16.10;99.90
47350;DHT22;33088;51.982;5.872;2022-07-22T01:45:48;16.10;99.90
47350;DHT22;33088;51.982;5.872;2022-07-22T01:48:15;16.00;99.90
47350;DHT22;33088;51.982;5.872;2022-07-22T01:50:42;16.10;99.90
47350;DHT22;33088;51.982;5.872;2022-07-22T01:53:08;16.10;99.90
47350;DHT22;33088;51.982;5.872;2022-07-22T01:55:34;16.10;99.90
47350;DHT22;33088;51.982;5.872;2022-07-22T01:58:00;16.10;99.90
47350;DHT22;33088;51.982;5.872;2022-07-22T02:00:31;16.10;99.90
47350;DHT22;33088;51.982;5.872;2022-07-22T02:02:59;16.00;99.90
47350;DHT22;33088;51.982;5.872;2022-07-22T02:05:25;16.00;99.90
47350;DHT22;33088;51.982;5.872;2022-07-22T02:07:51;15.90;99.90
47350;DHT22;33088;51.982;5.872;2022-07-22T02:10:20;15.90;99.90
47350;DHT22;33088;51.982;5.872;2022-07-22T02:12:46;16.00;99.90
47350;DHT22;33088;51.982;5.872;2022-07-22T02:15:12;16.00;99.90
47350;DHT22;33088;51.982;5.872;2022-07-22T02:17:38;16.00;99.90
47350;DHT22;33088;51.982;5.872;2022-07-22T02:20:07;15.90;99.90
47350;DHT22;33088;51.982;5.872;2022-07-22T02:22:33;15.90;99.90
47350;DHT22;33088;51.982;5.872;2022-07-22T02:25:00;15.90;99.90
47350;DHT22;33088;51.982;5.872;2022-07-22T02:27:26;15.90;99.90
47350;DHT22;33088;51.982;5.872;2022-07-22T02:29:52;15.90;99.90
47350;DHT22;33088;51.982;5.872;2022-07-22T02:32:20;16.00;99.90
47350;DHT22;33088;51.982;5.872;2022-07-22T02:34:46;15.90;99.90
47350;DHT22;33088;51.982;5.872;2022-07-22T02:37:12;15.80;99.90
47350;DHT22;33088;51.982;5.872;2022-07-22T02:39:38;15.80;99.90
47350;DHT22;33088;51.982;5.872;2022-07-22T02:42:03;15.80;99.90
47350;DHT22;33088;51.982;5.872;2022-07-22T02:44:29;15.70;99.90
47350;DHT22;33088;51.982;5.872;2022-07-22T02:46:56;15.70;99.90
47350;DHT22;33088;51.982;5.872;2022-07-22T02:49:27;15.70;99.90
47350;DHT22;33088;51.982;5.872;2022-07-22T02:51:55;15.70;99.90
47350;DHT22;33088;51.982;5.872;2022-07-22T02:54:21;15.70;99.90
47350;DHT22;33088;51.982;5.872;2022-07-22T02:56:46;15.70;99.90
47350;DHT22;33088;51.982;5.872;2022-07-22T02:59:12;15.80;99.90
47350;DHT22;33088;51.982;5.872;2022-07-22T03:01:38;15.80;99.90
47350;DHT22;33088;51.982;5.872;2022-07-22T03:04:04;15.80;99.90
47350;DHT22;33088;51.982;5.872;2022-07-22T03:06:33;15.80;99.90
47350;DHT22;33088;51.982;5.872;2022-07-22T03:09:04;15.70;99.90
47350;DHT22;33088;51.982;5.872;2022-07-22T03:11:31;15.80;99.90
47350;DHT22;33088;51.982;5.872;2022-07-22T03:13:57;15.80;99.90
47350;DHT22;33088;51.982;5.872;2022-07-22T03:16:22;15.70;99.90
47350;DHT22;33088;51.982;5.872;2022-07-22T03:18:49;15.70;99.90
47350;DHT22;33088;51.982;5.872;2022-07-22T03:21:15;15.70;99.90
47350;DHT22;33088;51.982;5.872;2022-07-22T03:23:41;15.70;99.90
47350;DHT22;33088;51.982;5.872;2022-07-22T03:26:07;15.70;99.90
47350;DHT22;33088;51.982;5.872;2022-07-22T03:28:33;15.70;99.90
47350;DHT22;33088;51.982;5.872;2022-07-22T03:30:59;15.70;99.90
47350;DHT22;33088;51.982;5.872;2022-07-22T03:33:25;15.70;99.90
47350;DHT22;33088;51.982;5.872;2022-07-22T03:35:51;15.60;99.90
47350;DHT22;33088;51.982;5.872;2022-07-22T03:38:17;15.60;99.90
47350;DHT22;33088;51.982;5.872;2022-07-22T03:40:44;15.60;99.90
47350;DHT22;33088;51.982;5.872;2022-07-22T03:43:10;15.60;99.90
47350;DHT22;33088;51.982;5.872;2022-07-22T03:45:36;15.60;99.90
47350;DHT22;33088;51.982;5.872;2022-07-22T03:48:02;15.70;99.90
47350;DHT22;33088;51.982;5.872;2022-07-22T03:50:34;15.70;99.90
47350;DHT22;33088;51.982;5.872;2022-07-22T03:53:00;15.80;99.90
47350;DHT22;33088;51.982;5.872;2022-07-22T03:55:25;15.80;99.90
47350;DHT22;33088;51.982;5.872;2022-07-22T03:57:54;15.80;99.90
47350;DHT22;33088;51.982;5.872;2022-07-22T04:00:24;15.80;99.90
47350;DHT22;33088;51.982;5.872;2022-07-22T04:02:49;15.80;99.90
47350;DHT22;33088;51.982;5.872;2022-07-22T04:05:41;15.90;99.90
47350;DHT22;33088;51.982;5.872;2022-07-22T04:08:08;15.80;99.90
47350;DHT22;33088;51.982;5.872;2022-07-22T04:10:33;15.80;99.90
47350;DHT22;33088;51.982;5.872;2022-07-22T04:12:59;15.80;99.90
47350;DHT22;33088;51.982;5.872;2022-07-22T04:15:35;15.80;99.90
47350;DHT22;33088;51.982;5.872;2022-07-22T04:18:01;15.80;99.90
47350;DHT22;33088;51.982;5.872;2022-07-22T04:20:27;15.80;99.90
47350;DHT22;33088;51.982;5.872;2022-07-22T04:23:19;15.80;99.90
47350;DHT22;33088;51.982;5.872;2022-07-22T04:25:44;15.90;99.90
47350;DHT22;33088;51.982;5.872;2022-07-22T04:28:11;15.90;99.90
47350;DHT22;33088;51.982;5.872;2022-07-22T04:30:39;16.00;99.90
47350;DHT22;33088;51.982;5.872;2022-07-22T04:33:05;15.90;99.90
47350;DHT22;33088;51.982;5.872;2022-07-22T04:35:31;16.00;99.90
47350;DHT22;33088;51.982;5.872;2022-07-22T04:38:07;16.00;99.90
47350;DHT22;33088;51.982;5.872;2022-07-22T04:40:35;16.10;99.90
47350;DHT22;33088;51.982;5.872;2022-07-22T04:43:00;16.10;99.90
47350;DHT22;33088;51.982;5.872;2022-07-22T04:45:26;16.10;99.90
47350;DHT22;33088;51.982;5.872;2022-07-22T04:47:52;16.10;99.90
47350;DHT22;33088;51.982;5.872;2022-07-22T04:50:18;16.10;99.90
47350;DHT22;33088;51.982;5.872;2022-07-22T04:52:44;16.00;99.90
47350;DHT22;33088;51.982;5.872;2022-07-22T04:55:10;16.00;99.90
47350;DHT22;33088;51.982;5.872;2022-07-22T04:57:35;15.90;99.90
47350;DHT22;33088;51.982;5.872;2022-07-22T05:00:03;15.70;99.90
47350;DHT22;33088;51.982;5.872;2022-07-22T05:02:33;15.70;99.90
47350;DHT22;33088;51.982;5.872;2022-07-22T05:04:59;15.60;99.90
47350;DHT22;33088;51.982;5.872;2022-07-22T05:07:24;15.60;99.90
47350;DHT22;33088;51.982;5.872;2022-07-22T05:09:50;15.50;99.90
47350;DHT22;33088;51.982;5.872;2022-07-22T05:12:16;15.50;99.90
47350;DHT22;33088;51.982;5.872;2022-07-22T05:14:42;15.60;99.90
47350;DHT22;33088;51.982;5.872;2022-07-22T05:17:12;15.60;99.90
47350;DHT22;33088;51.982;5.872;2022-07-22T05:19:45;15.70;99.90
47350;DHT22;33088;51.982;5.872;2022-07-22T05:22:11;15.70;99.90
47350;DHT22;33088;51.982;5.872;2022-07-22T05:24:36;15.80;99.90
47350;DHT22;33088;51.982;5.872;2022-07-22T05:27:02;15.80;99.90
47350;DHT22;33088;51.982;5.872;2022-07-22T05:29:29;15.90;99.90
47350;DHT22;33088;51.982;5.872;2022-07-22T05:31:58;15.90;99.90
47350;DHT22;33088;51.982;5.872;2022-07-22T05:34:24;15.90;99.90
47350;DHT22;33088;51.982;5.872;2022-07-22T05:36:53;16.00;99.90
47350;DHT22;33088;51.982;5.872;2022-07-22T05:39:18;16.10;99.90
47350;DHT22;33088;51.982;5.872;2022-07-22T05:41:44;16.10;99.90
47350;DHT22;33088;51.982;5.872;2022-07-22T05:44:10;16.20;99.90
47350;DHT22;33088;51.982;5.872;2022-07-22T05:46:36;16.20;99.90
47350;DHT22;33088;51.982;5.872;2022-07-22T05:49:02;16.30;99.90
47350;DHT22;33088;51.982;5.872;2022-07-22T05:51:33;16.30;99.90
47350;DHT22;33088;51.982;5.872;2022-07-22T05:54:00;16.40;99.90
47350;DHT22;33088;51.982;5.872;2022-07-22T05:56:28;16.40;99.90
47350;DHT22;33088;51.982;5.872;2022-07-22T05:58:55;16.50;99.90
47350;DHT22;33088;51.982;5.872;2022-07-22T06:01:23;16.40;99.90
47350;DHT22;33088;51.982;5.872;2022-07-22T06:03:52;16.50;99.90
47350;DHT22;33088;51.982;5.872;2022-07-22T06:06:18;16.50;99.90
47350;DHT22;33088;51.982;5.872;2022-07-22T06:08:45;16.50;99.90
47350;DHT22;33088;51.982;5.872;2022-07-22T06:11:11;16.50;99.90
47350;DHT22;33088;51.982;5.872;2022-07-22T06:13:37;16.60;99.90
47350;DHT22;33088;51.982;5.872;2022-07-22T06:16:03;16.70;99.90
47350;DHT22;33088;51.982;5.872;2022-07-22T06:18:30;16.70;99.90
47350;DHT22;33088;51.982;5.872;2022-07-22T06:20:55;16.90;99.90
47350;DHT22;33088;51.982;5.872;2022-07-22T06:23:23;16.90;99.90
47350;DHT22;33088;51.982;5.872;2022-07-22T06:25:50;16.80;99.90
47350;DHT22;33088;51.982;5.872;2022-07-22T06:28:29;16.90;99.90
47350;DHT22;33088;51.982;5.872;2022-07-22T06:30:54;16.80;99.90
47350;DHT22;33088;51.982;5.872;2022-07-22T06:33:21;16.90;99.90
47350;DHT22;33088;51.982;5.872;2022-07-22T06:35:47;17.00;99.90
47350;DHT22;33088;51.982;5.872;2022-07-22T06:38:13;16.90;99.90
47350;DHT22;33088;51.982;5.872;2022-07-22T06:40:59;16.90;99.90
47350;DHT22;33088;51.982;5.872;2022-07-22T06:43:45;17.00;99.90
47350;DHT22;33088;51.982;5.872;2022-07-22T06:46:30;17.00;99.90
47350;DHT22;33088;51.982;5.872;2022-07-22T06:48:56;17.00;99.90
47350;DHT22;33088;51.982;5.872;2022-07-22T06:51:22;17.00;99.90
47350;DHT22;33088;51.982;5.872;2022-07-22T06:53:47;17.00;99.90
47350;DHT22;33088;51.982;5.872;2022-07-22T06:56:13;17.10;99.90
47350;DHT22;33088;51.982;5.872;2022-07-22T06:58:40;17.30;99.90
47350;DHT22;33088;51.982;5.872;2022-07-22T07:01:06;17.30;99.90
47350;DHT22;33088;51.982;5.872;2022-07-22T07:03:37;17.40;99.90
47350;DHT22;33088;51.982;5.872;2022-07-22T07:06:07;17.40;99.90
47350;DHT22;33088;51.982;5.872;2022-07-22T07:08:52;17.40;99.90
47350;DHT22;33088;51.982;5.872;2022-07-22T07:11:18;17.50;99.90
47350;DHT22;33088;51.982;5.872;2022-07-22T07:13:44;17.50;99.90
47350;DHT22;33088;51.982;5.872;2022-07-22T07:16:10;17.70;99.90
47350;DHT22;33088;51.982;5.872;2022-07-22T07:18:36;17.90;99.90
47350;DHT22;33088;51.982;5.872;2022-07-22T07:21:03;18.00;99.90
47350;DHT22;33088;51.982;5.872;2022-07-22T07:23:30;18.10;99.90
47350;DHT22;33088;51.982;5.872;2022-07-22T07:25:56;18.10;99.90
47350;DHT22;33088;51.982;5.872;2022-07-22T07:28:22;18.20;99.90
47350;DHT22;33088;51.982;5.872;2022-07-22T07:30:52;18.30;99.90
47350;DHT22;33088;51.982;5.872;2022-07-22T07:33:18;18.30;99.90
47350;DHT22;33088;51.982;5.872;2022-07-22T07:35:44;18.10;99.90
47350;DHT22;33088;51.982;5.872;2022-07-22T07:38:10;18.00;99.90
47350;DHT22;33088;51.982;5.872;2022-07-22T07:40:39;18.00;99.90
47350;DHT22;33088;51.982;5.872;2022-07-22T07:43:05;18.10;99.90
47350;DHT22;33088;51.982;5.872;2022-07-22T07:45:31;18.10;99.90
47350;DHT22;33088;51.982;5.872;2022-07-22T07:47:57;18.00;99.90
47350;DHT22;33088;51.982;5.872;2022-07-22T07:50:23;18.00;99.90
47350;DHT22;33088;51.982;5.872;2022-07-22T07:52:48;18.00;99.90
47350;DHT22;33088;51.982;5.872;2022-07-22T07:55:15;18.10;99.90
47350;DHT22;33088;51.982;5.872;2022-07-22T07:57:43;18.00;99.90
47350;DHT22;33088;51.982;5.872;2022-07-22T08:00:13;18.20;99.90
47350;DHT22;33088;51.982;5.872;2022-07-22T08:02:41;18.30;99.90
47350;DHT22;33088;51.982;5.872;2022-07-22T08:05:09;18.20;99.90
47350;DHT22;33088;51.982;5.872;2022-07-22T08:07:37;18.40;99.90
47350;DHT22;33088;51.982;5.872;2022-07-22T08:10:05;18.40;99.90
47350;DHT22;33088;51.982;5.872;2022-07-22T08:12:51;18.60;99.90
47350;DHT22;33088;51.982;5.872;2022-07-22T08:15:29;18.90;99.90
47350;DHT22;33088;51.982;5.872;2022-07-22T08:17:56;19.00;99.90
47350;DHT22;33088;51.982;5.872;2022-07-22T08:20:23;19.00;99.90
47350;DHT22;33088;51.982;5.872;2022-07-22T08:22:50;18.90;99.90
47350;DHT22;33088;51.982;5.872;2022-07-22T08:25:16;19.00;99.90
47350;DHT22;33088;51.982;5.872;2022-07-22T08:27:43;19.20;99.90
47350;DHT22;33088;51.982;5.872;2022-07-22T08:30:09;19.20;99.90
47350;DHT22;33088;51.982;5.872;2022-07-22T08:32:35;19.30;99.90
47350;DHT22;33088;51.982;5.872;2022-07-22T08:35:01;19.50;99.90
47350;DHT22;33088;51.982;5.872;2022-07-22T08:37:27;19.80;99.90
47350;DHT22;33088;51.982;5.872;2022-07-22T08:39:53;19.70;99.90
47350;DHT22;33088;51.982;5.872;2022-07-22T08:42:22;19.50;99.90
47350;DHT22;33088;51.982;5.872;2022-07-22T08:44:48;19.30;99.90
47350;DHT22;33088;51.982;5.872;2022-07-22T08:47:15;19.40;99.90
47350;DHT22;33088;51.982;5.872;2022-07-22T08:49:53;19.30;99.90
47350;DHT22;33088;51.982;5.872;2022-07-22T08:52:45;19.20;99.90
47350;DHT22;33088;51.982;5.872;2022-07-22T08:55:11;19.10;99.90
47350;DHT22;33088;51.982;5.872;2022-07-22T08:57:37;19.20;99.90
47350;DHT22;33088;51.982;5.872;2022-07-22T09:00:13;19.00;99.90
47350;DHT22;33088;51.982;5.872;2022-07-22T09:02:41;19.10;99.90
47350;DHT22;33088;51.982;5.872;2022-07-22T09:05:10;19.10;99.90
47350;DHT22;33088;51.982;5.872;2022-07-22T09:07:39;19.20;99.90
47350;DHT22;33088;51.982;5.872;2022-07-22T09:10:33;19.30;99.90
47350;DHT22;33088;51.982;5.872;2022-07-22T09:13:33;19.20;99.90
47350;DHT22;33088;51.982;5.872;2022-07-22T09:16:37;19.30;99.90
47350;DHT22;33088;51.982;5.872;2022-07-22T09:19:31;19.40;99.90
47350;DHT22;33088;51.982;5.872;2022-07-22T09:22:39;19.60;99.90
47350;DHT22;33088;51.982;5.872;2022-07-22T09:28:21;19.30;99.90
47350;DHT22;33088;51.982;5.872;2022-07-22T09:31:06;19.50;99.90
47350;DHT22;33088;51.982;5.872;2022-07-22T09:33:37;19.80;99.90
47350;DHT22;33088;51.982;5.872;2022-07-22T09:36:20;19.90;99.90
47350;DHT22;33088;51.982;5.872;2022-07-22T09:38:47;20.00;99.90
47350;DHT22;33088;51.982;5.872;2022-07-22T09:41:13;19.90;99.90
47350;DHT22;33088;51.982;5.872;2022-07-22T09:43:39;19.70;99.90
47350;DHT22;33088;51.982;5.872;2022-07-22T09:46:06;19.90;99.90
47350;DHT22;33088;51.982;5.872;2022-07-22T09:48:55;19.90;99.90
47350;DHT22;33088;51.982;5.872;2022-07-22T09:51:51;19.90;99.90
47350;DHT22;33088;51.982;5.872;2022-07-22T09:54:19;20.00;99.90
47350;DHT22;33088;51.982;5.872;2022-07-22T09:56:46;20.10;99.90
47350;DHT22;33088;51.982;5.872;2022-07-22T09:59:15;20.30;99.90
47350;DHT22;33088;51.982;5.872;2022-07-22T10:01:47;20.30;99.90
47350;DHT22;33088;51.982;5.872;2022-07-22T10:04:14;20.40;99.90
47350;DHT22;33088;51.982;5.872;2022-07-22T10:06:41;20.30;99.90
47350;DHT22;33088;51.982;5.872;2022-07-22T10:09:11;20.40;99.90
47350;DHT22;33088;51.982;5.872;2022-07-22T10:11:39;20.40;99.90
47350;DHT22;33088;51.982;5.872;2022-07-22T10:14:19;20.30;99.90
47350;DHT22;33088;51.982;5.872;2022-07-22T10:16:46;20.20;99.90
47350;DHT22;33088;51.982;5.872;2022-07-22T10:19:12;20.30;99.90
47350;DHT22;33088;51.982;5.872;2022-07-22T10:21:38;20.40;99.90
47350;DHT22;33088;51.982;5.872;2022-07-22T10:24:13;20.40;99.90
47350;DHT22;33088;51.982;5.872;2022-07-22T10:26:52;20.40;99.90
47350;DHT22;33088;51.982;5.872;2022-07-22T10:29:40;20.50;99.90
47350;DHT22;33088;51.982;5.872;2022-07-22T10:35:30;21.00;99.90
47350;DHT22;33088;51.982;5.872;2022-07-22T10:40:20;21.10;99.90
47350;DHT22;33088;51.982;5.872;2022-07-22T10:45:45;21.60;99.90
47350;DHT22;33088;51.982;5.872;2022-07-22T10:48:15;21.50;99.90
47350;DHT22;33088;51.982;5.872;2022-07-22T10:50:46;21.70;99.90
47350;DHT22;33088;51.982;5.872;2022-07-22T10:53:15;21.80;99.90
47350;DHT22;33088;51.982;5.872;2022-07-22T11:01:02;21.90;99.90
47350;DHT22;33088;51.982;5.872;2022-07-22T11:03:30;21.60;99.90
47350;DHT22;33088;51.982;5.872;2022-07-22T11:05:56;21.60;99.90
47350;DHT22;33088;51.982;5.872;2022-07-22T11:08:22;21.60;99.90
47350;DHT22;33088;51.982;5.872;2022-07-22T11:10:48;21.80;99.90
47350;DHT22;33088;51.982;5.872;2022-07-22T11:13:38;22.10;99.90
47350;DHT22;33088;51.982;5.872;2022-07-22T11:16:24;22.00;99.90
47350;DHT22;33088;51.982;5.872;2022-07-22T11:18:56;21.90;99.90
47350;DHT22;33088;51.982;5.872;2022-07-22T11:21:28;22.10;99.90
47350;DHT22;33088;51.982;5.872;2022-07-22T11:23:56;22.40;99.90
47350;DHT22;33088;51.982;5.872;2022-07-22T11:26:42;22.50;99.90
47350;DHT22;33088;51.982;5.872;2022-07-22T11:29:10;23.00;99.90
47350;DHT22;33088;51.982;5.872;2022-07-22T11:31:37;23.50;99.90
47350;DHT22;33088;51.982;5.872;2022-07-22T11:34:14;23.70;99.90
47350;DHT22;33088;51.982;5.872;2022-07-22T11:36:43;24.10;99.90
47350;DHT22;33088;51.982;5.872;2022-07-22T11:39:10;24.20;99.30
47350;DHT22;33088;51.982;5.872;2022-07-22T11:41:36;23.80;99.60
47350;DHT22;33088;51.982;5.872;2022-07-22T11:44:02;23.40;99.90
47350;DHT22;33088;51.982;5.872;2022-07-22T11:46:41;23.40;99.90
47350;DHT22;33088;51.982;5.872;2022-07-22T11:49:08;23.00;99.90
47350;DHT22;33088;51.982;5.872;2022-07-22T11:51:37;22.90;99.90
47350;DHT22;33088;51.982;5.872;2022-07-22T11:54:04;22.80;99.90
47350;DHT22;33088;51.982;5.872;2022-07-22T11:56:31;22.80;99.90
47350;DHT22;33088;51.982;5.872;2022-07-22T11:58:57;22.50;99.90
47350;DHT22;33088;51.982;5.872;2022-07-22T12:01:28;22.10;99.90
47350;DHT22;33088;51.982;5.872;2022-07-22T12:03:59;22.10;99.90
47350;DHT22;33088;51.982;5.872;2022-07-22T12:06:26;22.00;99.90
47350;DHT22;33088;51.982;5.872;2022-07-22T12:09:02;21.80;99.90
47350;DHT22;33088;51.982;5.872;2022-07-22T12:11:28;21.70;99.90
47350;DHT22;33088;51.982;5.872;2022-07-22T12:13:54;21.80;99.90
47350;DHT22;33088;51.982;5.872;2022-07-22T12:16:24;22.30;99.90
47350;DHT22;33088;51.982;5.872;2022-07-22T12:21:30;22.50;99.90
47350;DHT22;33088;51.982;5.872;2022-07-22T12:24:04;22.70;99.90
47350;DHT22;33088;51.982;5.872;2022-07-22T12:26:45;22.40;99.90
47350;DHT22;33088;51.982;5.872;2022-07-22T12:29:13;22.30;99.90
47350;DHT22;33088;51.982;5.872;2022-07-22T12:31:47;22.10;99.90
47350;DHT22;33088;51.982;5.872;2022-07-22T12:34:13;22.10;99.90
47350;DHT22;33088;51.982;5.872;2022-07-22T12:36:46;22.00;99.90
47350;DHT22;33088;51.982;5.872;2022-07-22T12:39:14;22.10;99.90
47350;DHT22;33088;51.982;5.872;2022-07-22T12:41:52;22.50;99.90
47350;DHT22;33088;51.982;5.872;2022-07-22T12:44:24;22.90;99.90
47350;DHT22;33088;51.982;5.872;2022-07-22T12:46:54;22.90;99.90
47350;DHT22;33088;51.982;5.872;2022-07-22T12:49:23;23.10;99.90
47350;DHT22;33088;51.982;5.872;2022-07-22T12:54:35;23.30;99.90
47350;DHT22;33088;51.982;5.872;2022-07-22T12:57:01;23.10;99.90
47350;DHT22;33088;51.982;5.872;2022-07-22T12:59:27;23.30;99.90
47350;DHT22;33088;51.982;5.872;2022-07-22T13:01:53;23.70;99.90
47350;DHT22;33088;51.982;5.872;2022-07-22T13:04:19;24.00;99.90
47350;DHT22;33088;51.982;5.872;2022-07-22T13:06:44;24.40;99.90
47350;DHT22;33088;51.982;5.872;2022-07-22T13:09:10;24.60;99.00
47350;DHT22;33088;51.982;5.872;2022-07-22T13:11:36;24.60;99.80
47350;DHT22;33088;51.982;5.872;2022-07-22T13:14:09;24.40;99.90
47350;DHT22;33088;51.982;5.872;2022-07-22T13:16:35;24.40;99.90
47350;DHT22;33088;51.982;5.872;2022-07-22T13:19:01;24.10;99.60
47350;DHT22;33088;51.982;5.872;2022-07-22T13:21:27;23.80;98.90
47350;DHT22;33088;51.982;5.872;2022-07-22T13:23:52;23.60;99.50
47350;DHT22;33088;51.982;5.872;2022-07-22T13:26:18;23.30;99.90
47350;DHT22;33088;51.982;5.872;2022-07-22T13:28:45;23.00;99.90
47350;DHT22;33088;51.982;5.872;2022-07-22T13:31:10;22.90;99.90
47350;DHT22;33088;51.982;5.872;2022-07-22T13:33:36;23.00;99.90
47350;DHT22;33088;51.982;5.872;2022-07-22T13:36:02;23.00;99.90
47350;DHT22;33088;51.982;5.872;2022-07-22T13:38:29;23.00;99.90
47350;DHT22;33088;51.982;5.872;2022-07-22T13:40:55;23.30;99.90
47350;DHT22;33088;51.982;5.872;2022-07-22T13:43:22;23.50;99.90
47350;DHT22;33088;51.982;5.872;2022-07-22T13:45:49;23.30;99.90
47350;DHT22;33088;51.982;5.872;2022-07-22T13:48:15;23.20;99.90
47350;DHT22;33088;51.982;5.872;2022-07-22T13:50:42;23.30;99.90
47350;DHT22;33088;51.982;5.872;2022-07-22T13:53:08;23.50;99.90
47350;DHT22;33088;51.982;5.872;2022-07-22T13:55:34;23.50;99.90
47350;DHT22;33088;51.982;5.872;2022-07-22T13:57:59;23.80;99.90
47350;DHT22;33088;51.982;5.872;2022-07-22T14:00:25;24.00;99.90
47350;DHT22;33088;51.982;5.872;2022-07-22T14:02:51;24.10;99.90
47350;DHT22;33088;51.982;5.872;2022-07-22T14:05:18;24.00;98.70
47350;DHT22;33088;51.982;5.872;2022-07-22T14:07:43;23.70;98.70
47350;DHT22;33088;51.982;5.872;2022-07-22T14:10:10;23.60;98.10
47350;DHT22;33088;51.982;5.872;2022-07-22T14:12:37;23.40;99.60
47350;DHT22;33088;51.982;5.872;2022-07-22T14:15:03;23.20;99.90
47350;DHT22;33088;51.982;5.872;2022-07-22T14:17:30;22.80;99.90
47350;DHT22;33088;51.982;5.872;2022-07-22T14:19:55;22.70;99.90
47350;DHT22;33088;51.982;5.872;2022-07-22T14:22:21;22.60;99.90
47350;DHT22;33088;51.982;5.872;2022-07-22T14:24:47;22.60;99.90
47350;DHT22;33088;51.982;5.872;2022-07-22T14:27:12;22.70;99.90
47350;DHT22;33088;51.982;5.872;2022-07-22T14:29:39;23.00;99.90
47350;DHT22;33088;51.982;5.872;2022-07-22T14:32:05;23.20;99.90
47350;DHT22;33088;51.982;5.872;2022-07-22T14:34:31;23.40;99.90
47350;DHT22;33088;51.982;5.872;2022-07-22T14:36:56;23.60;99.90
47350;DHT22;33088;51.982;5.872;2022-07-22T14:39:22;23.40;99.90
47350;DHT22;33088;51.982;5.872;2022-07-22T14:41:48;23.50;99.90
47350;DHT22;33088;51.982;5.872;2022-07-22T14:44:13;23.50;99.90
47350;DHT22;33088;51.982;5.872;2022-07-22T14:46:39;23.50;99.90
47350;DHT22;33088;51.982;5.872;2022-07-22T14:49:05;23.70;99.90
47350;DHT22;33088;51.982;5.872;2022-07-22T14:51:31;23.90;99.90
47350;DHT22;33088;51.982;5.872;2022-07-22T14:53:57;23.90;99.90
47350;DHT22;33088;51.982;5.872;2022-07-22T14:56:22;23.70;99.90
47350;DHT22;33088;51.982;5.872;2022-07-22T14:58:48;23.50;99.90
47350;DHT22;33088;51.982;5.872;2022-07-22T15:01:14;23.50;99.90
47350;DHT22;33088;51.982;5.872;2022-07-22T15:03:39;23.60;99.90
47350;DHT22;33088;51.982;5.872;2022-07-22T15:06:05;23.40;99.90
47350;DHT22;33088;51.982;5.872;2022-07-22T15:08:31;23.30;99.90
47350;DHT22;33088;51.982;5.872;2022-07-22T15:10:57;23.20;99.90
47350;DHT22;33088;51.982;5.872;2022-07-22T15:13:25;23.30;99.90
47350;DHT22;33088;51.982;5.872;2022-07-22T15:15:51;23.30;99.90
47350;DHT22;33088;51.982;5.872;2022-07-22T15:18:17;23.20;99.90
47350;DHT22;33088;51.982;5.872;2022-07-22T15:20:42;23.30;99.90
47350;DHT22;33088;51.982;5.872;2022-07-22T15:23:08;23.30;99.90
47350;DHT22;33088;51.982;5.872;2022-07-22T15:25:34;23.10;99.90
47350;DHT22;33088;51.982;5.872;2022-07-22T15:28:00;22.90;99.90
47350;DHT22;33088;51.982;5.872;2022-07-22T15:30:25;23.00;99.90
47350;DHT22;33088;51.982;5.872;2022-07-22T15:32:51;22.90;99.90
47350;DHT22;33088;51.982;5.872;2022-07-22T15:35:17;22.80;99.90
47350;DHT22;33088;51.982;5.872;2022-07-22T15:37:43;22.80;99.90
47350;DHT22;33088;51.982;5.872;2022-07-22T15:40:10;22.70;99.90
47350;DHT22;33088;51.982;5.872;2022-07-22T15:42:37;22.70;99.90
47350;DHT22;33088;51.982;5.872;2022-07-22T15:45:05;22.80;99.90
47350;DHT22;33088;51.982;5.872;2022-07-22T15:47:31;22.70;99.90
47350;DHT22;33088;51.982;5.872;2022-07-22T15:49:57;22.60;99.90
47350;DHT22;33088;51.982;5.872;2022-07-22T15:52:22;22.60;99.90
47350;DHT22;33088;51.982;5.872;2022-07-22T15:54:48;22.50;99.90
47350;DHT22;33088;51.982;5.872;2022-07-22T15:57:14;22.50;99.90
47350;DHT22;33088;51.982;5.872;2022-07-22T15:59:58;22.50;99.90